sensor_id;sensor_type;location;lat;lon;timestamp;P1;durP1;ratioP1;P2;durP2;ratioP2
46875;SDS011;32866;50.160;14.768;2024-02-16T12:43:27;3.22;;;2.90;;
46875;SDS011;32866;50.160;14.768;2024-02-16T12:45:53;4.40;;;3.95;;
46875;SDS011;32866;50.160;14.768;2024-02-16T12:48:19;3.83;;;3.53;;
46875;SDS011;32866;50.160;14.768;2024-02-16T12:50:46;4.10;;;3.80;;
46875;SDS011;32866;50.160;14.768;2024-02-16T12:53:13;3.22;;;3.03;;
46875;SDS011;32866;50.160;14.768;2024-02-16T12:55:39;5.23;;;3.80;;
46875;SDS011;32866;50.160;14.768;2024-02-16T12:58:05;4.60;;;4.22;;
46875;SDS011;32866;50.160;14.768;2024-02-16T13:00:31;3.35;;;3.15;;
46875;SDS011;32866;50.160;14.768;2024-02-16T13:02:57;4.70;;;3.45;;
46875;SDS011;32866;50.160;14.768;2024-02-16T13:05:23;3.30;;;2.90;;
46875;SDS011;32866;50.160;14.768;2024-02-16T13:07:49;3.45;;;3.15;;
46875;SDS011;32866;50.160;14.768;2024-02-16T13:10:15;3.45;;;3.15;;
46875;SDS011;32866;50.160;14.768;2024-02-16T13:20:00;4.25;;;3.70;;
46875;SDS011;32866;50.160;14.768;2024-02-16T13:22:33;3.93;;;3.53;;
46875;SDS011;32866;50.160;14.768;2024-02-16T13:24:59;3.20;;;2.90;;
46875;SDS011;32866;50.160;14.768;2024-02-16T13:27:25;3.97;;;2.55;;
46875;SDS011;32866;50.160;14.768;2024-02-16T13:29:51;3.25;;;3.05;;
46875;SDS011;32866;50.160;14.768;2024-02-16T13:32:17;5.30;;;4.32;;
46875;SDS011;32866;50.160;14.768;2024-02-16T13:34:43;3.42;;;3.13;;
46875;SDS011;32866;50.160;14.768;2024-02-16T13:37:09;4.85;;;3.88;;
46875;SDS011;32866;50.160;14.768;2024-02-16T13:39:35;3.30;;;3.08;;
46875;SDS011;32866;50.160;14.768;2024-02-16T13:42:01;5.03;;;4.15;;
46875;SDS011;32866;50.160;14.768;2024-02-16T13:44:28;5.07;;;2.72;;
46875;SDS011;32866;50.160;14.768;2024-02-16T13:46:54;2.53;;;2.42;;
46875;SDS011;32866;50.160;14.768;2024-02-16T13:49:20;3.40;;;2.78;;
46875;SDS011;32866;50.160;14.768;2024-02-16T13:51:46;4.45;;;4.05;;
46875;SDS011;32866;50.160;14.768;2024-02-16T13:54:12;3.38;;;3.17;;
46875;SDS011;32866;50.160;14.768;2024-02-16T13:59:04;3.40;;;3.20;;
46875;SDS011;32866;50.160;14.768;2024-02-16T14:01:30;4.15;;;3.60;;
46875;SDS011;32866;50.160;14.768;2024-02-16T14:06:22;3.67;;;3.47;;
46875;SDS011;32866;50.160;14.768;2024-02-16T14:11:14;5.05;;;3.28;;
46875;SDS011;32866;50.160;14.768;2024-02-16T14:13:40;3.05;;;2.85;;
46875;SDS011;32866;50.160;14.768;2024-02-16T14:18:34;3.13;;;2.67;;
46875;SDS011;32866;50.160;14.768;2024-02-16T14:21:01;4.15;;;3.42;;
46875;SDS011;32866;50.160;14.768;2024-02-16T14:23:28;4.20;;;3.90;;
46875;SDS011;32866;50.160;14.768;2024-02-16T14:25:55;3.90;;;3.60;;
46875;SDS011;32866;50.160;14.768;2024-02-16T14:28:22;3.28;;;3.08;;
46875;SDS011;32866;50.160;14.768;2024-02-16T14:30:48;3.95;;;3.72;;
46875;SDS011;32866;50.160;14.768;2024-02-16T14:33:14;4.40;;;4.10;;
46875;SDS011;32866;50.160;14.768;2024-02-16T14:35:45;4.15;;;3.85;;
46875;SDS011;32866;50.160;14.768;2024-02-16T14:38:11;3.42;;;3.22;;
46875;SDS011;32866;50.160;14.768;2024-02-16T14:40:39;7.25;;;3.70;;
46875;SDS011;32866;50.160;14.768;2024-02-16T14:43:05;6.63;;;6.18;;
46875;SDS011;32866;50.160;14.768;2024-02-16T14:45:31;3.40;;;3.20;;
46875;SDS011;32866;50.160;14.768;2024-02-16T14:47:57;5.65;;;4.05;;
46875;SDS011;32866;50.160;14.768;2024-02-16T14:50:23;3.53;;;3.22;;
46875;SDS011;32866;50.160;14.768;2024-02-16T14:52:50;5.28;;;4.85;;
46875;SDS011;32866;50.160;14.768;2024-02-16T14:55:16;3.45;;;3.35;;
46875;SDS011;32866;50.160;14.768;2024-02-16T14:57:42;4.68;;;3.05;;
46875;SDS011;32866;50.160;14.768;2024-02-16T15:00:10;4.50;;;4.22;;
46875;SDS011;32866;50.160;14.768;2024-02-16T15:02:37;4.45;;;4.25;;
46875;SDS011;32866;50.160;14.768;2024-02-16T15:05:06;5.80;;;3.95;;
46875;SDS011;32866;50.160;14.768;2024-02-16T15:07:33;5.53;;;5.07;;
46875;SDS011;32866;50.160;14.768;2024-02-16T15:09:59;5.55;;;4.95;;
46875;SDS011;32866;50.160;14.768;2024-02-16T15:12:25;4.38;;;3.28;;
46875;SDS011;32866;50.160;14.768;2024-02-16T15:14:51;3.63;;;3.38;;
46875;SDS011;32866;50.160;14.768;2024-02-16T15:17:17;3.43;;;3.13;;
46875;SDS011;32866;50.160;14.768;2024-02-16T15:19:44;3.55;;;3.25;;
46875;SDS011;32866;50.160;14.768;2024-02-16T15:22:10;10.30;;;4.65;;
46875;SDS011;32866;50.160;14.768;2024-02-16T15:24:36;6.90;;;4.65;;
46875;SDS011;32866;50.160;14.768;2024-02-16T15:29:29;3.57;;;3.37;;
46875;SDS011;32866;50.160;14.768;2024-02-16T15:31:56;5.03;;;4.63;;
46875;SDS011;32866;50.160;14.768;2024-02-16T15:34:22;5.28;;;4.97;;
46875;SDS011;32866;50.160;14.768;2024-02-16T15:36:49;7.22;;;4.57;;
46875;SDS011;32866;50.160;14.768;2024-02-16T15:41:40;4.32;;;4.13;;
46875;SDS011;32866;50.160;14.768;2024-02-16T15:44:06;5.63;;;5.13;;
46875;SDS011;32866;50.160;14.768;2024-02-16T15:46:33;5.75;;;5.30;;
46875;SDS011;32866;50.160;14.768;2024-02-16T15:49:00;4.60;;;4.30;;
46875;SDS011;32866;50.160;14.768;2024-02-16T15:51:25;4.57;;;4.18;;
46875;SDS011;32866;50.160;14.768;2024-02-16T15:53:52;5.60;;;5.20;;
46875;SDS011;32866;50.160;14.768;2024-02-16T15:56:18;4.78;;;4.47;;
46875;SDS011;32866;50.160;14.768;2024-02-16T15:58:44;4.85;;;4.45;;
46875;SDS011;32866;50.160;14.768;2024-02-16T16:01:10;3.95;;;3.70;;
46875;SDS011;32866;50.160;14.768;2024-02-16T16:03:36;4.22;;;3.95;;
46875;SDS011;32866;50.160;14.768;2024-02-16T16:10:54;3.85;;;3.60;;
46875;SDS011;32866;50.160;14.768;2024-02-16T16:13:22;3.90;;;3.60;;
46875;SDS011;32866;50.160;14.768;2024-02-16T16:15:48;2.92;;;2.83;;
46875;SDS011;32866;50.160;14.768;2024-02-16T16:18:14;3.67;;;3.47;;
46875;SDS011;32866;50.160;14.768;2024-02-16T16:30:23;4.40;;;4.10;;
46875;SDS011;32866;50.160;14.768;2024-02-16T16:32:50;3.38;;;3.28;;
46875;SDS011;32866;50.160;14.768;2024-02-16T16:45:00;10.57;;;6.88;;
46875;SDS011;32866;50.160;14.768;2024-02-16T16:47:26;5.43;;;5.00;;
46875;SDS011;32866;50.160;14.768;2024-02-16T16:49:53;6.70;;;6.20;;
46875;SDS011;32866;50.160;14.768;2024-02-16T16:52:19;6.95;;;6.35;;
46875;SDS011;32866;50.160;14.768;2024-02-16T16:54:45;7.90;;;5.85;;
46875;SDS011;32866;50.160;14.768;2024-02-16T16:57:11;8.30;;;5.95;;
46875;SDS011;32866;50.160;14.768;2024-02-16T16:59:37;5.55;;;5.05;;
46875;SDS011;32866;50.160;14.768;2024-02-16T17:02:03;3.83;;;3.63;;
46875;SDS011;32866;50.160;14.768;2024-02-16T17:04:31;3.67;;;3.47;;
46875;SDS011;32866;50.160;14.768;2024-02-16T17:07:01;5.65;;;5.22;;
46875;SDS011;32866;50.160;14.768;2024-02-16T17:09:27;9.40;;;6.80;;
46875;SDS011;32866;50.160;14.768;2024-02-16T17:14:21;4.13;;;3.88;;
46875;SDS011;32866;50.160;14.768;2024-02-16T17:16:49;6.20;;;5.70;;
46875;SDS011;32866;50.160;14.768;2024-02-16T17:19:15;4.90;;;4.50;;
46875;SDS011;32866;50.160;14.768;2024-02-16T17:21:41;11.60;;;5.93;;
46875;SDS011;32866;50.160;14.768;2024-02-16T17:24:07;26.67;;;16.98;;
46875;SDS011;32866;50.160;14.768;2024-02-16T17:26:33;15.00;;;12.77;;
46875;SDS011;32866;50.160;14.768;2024-02-16T17:28:59;7.22;;;6.63;;
46875;SDS011;32866;50.160;14.768;2024-02-16T17:31:25;10.38;;;9.32;;
46875;SDS011;32866;50.160;14.768;2024-02-16T17:33:51;16.60;;;8.20;;
46875;SDS011;32866;50.160;14.768;2024-02-16T17:36:17;8.33;;;6.60;;
46875;SDS011;32866;50.160;14.768;2024-02-16T17:38:45;16.38;;;13.90;;
46875;SDS011;32866;50.160;14.768;2024-02-16T17:41:11;8.38;;;6.45;;
46875;SDS011;32866;50.160;14.768;2024-02-16T17:43:37;8.90;;;8.05;;
46875;SDS011;32866;50.160;14.768;2024-02-16T17:46:05;9.83;;;7.20;;
46875;SDS011;32866;50.160;14.768;2024-02-16T17:48:31;8.13;;;7.32;;
46875;SDS011;32866;50.160;14.768;2024-02-16T17:50:57;9.70;;;6.07;;
46875;SDS011;32866;50.160;14.768;2024-02-16T17:53:23;7.07;;;6.40;;
46875;SDS011;32866;50.160;14.768;2024-02-16T17:55:49;7.60;;;5.22;;
46875;SDS011;32866;50.160;14.768;2024-02-16T17:58:15;8.10;;;7.00;;
46875;SDS011;32866;50.160;14.768;2024-02-16T18:00:43;19.90;;;17.77;;
46875;SDS011;32866;50.160;14.768;2024-02-16T18:03:09;7.30;;;5.93;;
46875;SDS011;32866;50.160;14.768;2024-02-16T18:05:35;6.50;;;5.90;;
46875;SDS011;32866;50.160;14.768;2024-02-16T18:08:01;6.32;;;5.40;;
46875;SDS011;32866;50.160;14.768;2024-02-16T18:10:27;5.70;;;3.88;;
46875;SDS011;32866;50.160;14.768;2024-02-16T18:12:53;4.50;;;4.20;;
46875;SDS011;32866;50.160;14.768;2024-02-16T18:15:19;6.50;;;4.93;;
46875;SDS011;32866;50.160;14.768;2024-02-16T18:25:03;7.50;;;6.60;;
46875;SDS011;32866;50.160;14.768;2024-02-16T18:32:22;5.90;;;4.32;;
46875;SDS011;32866;50.160;14.768;2024-02-16T18:34:48;5.80;;;5.40;;
46875;SDS011;32866;50.160;14.768;2024-02-16T18:37:14;7.03;;;6.45;;
46875;SDS011;32866;50.160;14.768;2024-02-16T18:39:40;5.30;;;4.93;;
46875;SDS011;32866;50.160;14.768;2024-02-16T18:44:32;4.07;;;3.77;;
46875;SDS011;32866;50.160;14.768;2024-02-16T18:46:58;6.50;;;5.07;;
46875;SDS011;32866;50.160;14.768;2024-02-16T18:49:24;8.77;;;6.00;;
46875;SDS011;32866;50.160;14.768;2024-02-16T18:51:50;4.85;;;4.45;;
46875;SDS011;32866;50.160;14.768;2024-02-16T18:54:16;4.25;;;4.00;;
46875;SDS011;32866;50.160;14.768;2024-02-16T18:56:42;6.97;;;6.40;;
46875;SDS011;32866;50.160;14.768;2024-02-16T18:59:09;4.87;;;4.43;;
46875;SDS011;32866;50.160;14.768;2024-02-16T19:01:35;5.40;;;5.00;;
46875;SDS011;32866;50.160;14.768;2024-02-16T19:04:01;9.40;;;5.85;;
46875;SDS011;32866;50.160;14.768;2024-02-16T19:06:29;5.60;;;4.67;;
46875;SDS011;32866;50.160;14.768;2024-02-16T19:08:56;5.77;;;5.33;;
46875;SDS011;32866;50.160;14.768;2024-02-16T19:13:47;7.93;;;5.37;;
46875;SDS011;32866;50.160;14.768;2024-02-16T19:16:13;5.43;;;4.95;;
46875;SDS011;32866;50.160;14.768;2024-02-16T19:18:39;6.35;;;5.78;;
46875;SDS011;32866;50.160;14.768;2024-02-16T19:21:06;6.43;;;5.97;;
46875;SDS011;32866;50.160;14.768;2024-02-16T19:23:32;6.82;;;6.32;;
46875;SDS011;32866;50.160;14.768;2024-02-16T19:25:58;8.60;;;5.57;;
46875;SDS011;32866;50.160;14.768;2024-02-16T20:02:29;7.17;;;6.63;;
46875;SDS011;32866;50.160;14.768;2024-02-16T20:04:55;5.55;;;5.13;;
46875;SDS011;32866;50.160;14.768;2024-02-16T20:09:49;9.43;;;6.90;;
46875;SDS011;32866;50.160;14.768;2024-02-16T20:12:16;8.57;;;7.53;;
46875;SDS011;32866;50.160;14.768;2024-02-16T20:17:09;8.80;;;5.22;;
46875;SDS011;32866;50.160;14.768;2024-02-16T20:19:38;7.22;;;6.63;;
46875;SDS011;32866;50.160;14.768;2024-02-16T20:22:04;7.83;;;7.03;;
46875;SDS011;32866;50.160;14.768;2024-02-16T20:24:30;7.47;;;6.85;;
46875;SDS011;32866;50.160;14.768;2024-02-16T20:26:56;8.05;;;5.35;;
46875;SDS011;32866;50.160;14.768;2024-02-16T20:29:22;6.80;;;5.97;;
46875;SDS011;32866;50.160;14.768;2024-02-16T20:31:48;9.75;;;6.60;;
46875;SDS011;32866;50.160;14.768;2024-02-16T20:34:15;5.27;;;4.83;;
46875;SDS011;32866;50.160;14.768;2024-02-16T20:36:41;10.95;;;4.65;;
46875;SDS011;32866;50.160;14.768;2024-02-16T20:39:08;6.70;;;6.17;;
46875;SDS011;32866;50.160;14.768;2024-02-16T20:41:37;7.70;;;5.13;;
46875;SDS011;32866;50.160;14.768;2024-02-16T20:44:03;7.63;;;5.82;;
46875;SDS011;32866;50.160;14.768;2024-02-16T20:46:29;6.50;;;5.88;;
46875;SDS011;32866;50.160;14.768;2024-02-16T20:51:21;7.40;;;6.37;;
46875;SDS011;32866;50.160;14.768;2024-02-16T20:53:47;4.77;;;4.37;;
46875;SDS011;32866;50.160;14.768;2024-02-16T20:56:13;8.13;;;6.90;;
46875;SDS011;32866;50.160;14.768;2024-02-16T20:58:43;4.43;;;4.10;;
46875;SDS011;32866;50.160;14.768;2024-02-16T21:01:09;4.65;;;4.25;;
46875;SDS011;32866;50.160;14.768;2024-02-16T21:06:02;6.07;;;5.63;;
46875;SDS011;32866;50.160;14.768;2024-02-16T21:08:28;6.53;;;5.40;;
46875;SDS011;32866;50.160;14.768;2024-02-16T21:13:20;6.13;;;5.47;;
46875;SDS011;32866;50.160;14.768;2024-02-16T21:15:46;5.05;;;4.75;;
46875;SDS011;32866;50.160;14.768;2024-02-16T21:18:12;7.55;;;5.30;;
46875;SDS011;32866;50.160;14.768;2024-02-16T21:20:40;11.33;;;6.30;;
46875;SDS011;32866;50.160;14.768;2024-02-16T21:23:07;6.67;;;5.07;;
46875;SDS011;32866;50.160;14.768;2024-02-16T21:25:33;7.15;;;6.18;;
46875;SDS011;32866;50.160;14.768;2024-02-16T21:27:59;6.07;;;5.63;;
46875;SDS011;32866;50.160;14.768;2024-02-16T21:30:26;6.33;;;5.73;;
46875;SDS011;32866;50.160;14.768;2024-02-16T21:32:52;7.25;;;6.65;;
46875;SDS011;32866;50.160;14.768;2024-02-16T21:35:18;10.65;;;8.07;;
46875;SDS011;32866;50.160;14.768;2024-02-16T21:37:47;15.23;;;6.87;;
46875;SDS011;32866;50.160;14.768;2024-02-16T21:40:13;7.90;;;7.18;;
46875;SDS011;32866;50.160;14.768;2024-02-16T21:42:40;8.83;;;8.03;;
46875;SDS011;32866;50.160;14.768;2024-02-16T21:47:32;9.10;;;8.20;;
46875;SDS011;32866;50.160;14.768;2024-02-16T21:49:58;6.10;;;5.70;;
46875;SDS011;32866;50.160;14.768;2024-02-16T21:52:24;6.30;;;5.85;;
46875;SDS011;32866;50.160;14.768;2024-02-16T21:54:50;16.92;;;9.48;;
46875;SDS011;32866;50.160;14.768;2024-02-16T21:57:16;7.70;;;7.00;;
46875;SDS011;32866;50.160;14.768;2024-02-16T21:59:45;7.75;;;7.25;;
46875;SDS011;32866;50.160;14.768;2024-02-16T22:02:11;8.13;;;7.17;;
46875;SDS011;32866;50.160;14.768;2024-02-16T22:04:37;7.28;;;6.30;;
46875;SDS011;32866;50.160;14.768;2024-02-16T22:07:03;7.55;;;6.85;;
46875;SDS011;32866;50.160;14.768;2024-02-16T22:09:29;9.20;;;7.03;;
46875;SDS011;32866;50.160;14.768;2024-02-16T22:11:55;12.13;;;8.65;;
46875;SDS011;32866;50.160;14.768;2024-02-16T22:14:21;8.05;;;7.35;;
46875;SDS011;32866;50.160;14.768;2024-02-16T22:16:47;12.70;;;8.48;;
46875;SDS011;32866;50.160;14.768;2024-02-16T22:19:13;12.27;;;6.93;;
46875;SDS011;32866;50.160;14.768;2024-02-16T22:21:39;9.43;;;8.57;;
46875;SDS011;32866;50.160;14.768;2024-02-16T22:24:05;25.98;;;8.73;;
46875;SDS011;32866;50.160;14.768;2024-02-16T22:29:00;6.83;;;6.40;;
46875;SDS011;32866;50.160;14.768;2024-02-16T22:31:27;7.73;;;6.93;;
46875;SDS011;32866;50.160;14.768;2024-02-16T22:33:53;15.67;;;6.73;;
46875;SDS011;32866;50.160;14.768;2024-02-16T22:36:19;9.07;;;8.27;;
46875;SDS011;32866;50.160;14.768;2024-02-16T22:38:45;10.77;;;8.70;;
46875;SDS011;32866;50.160;14.768;2024-02-16T22:41:11;8.88;;;7.13;;
46875;SDS011;32866;50.160;14.768;2024-02-16T22:43:38;10.73;;;9.70;;
46875;SDS011;32866;50.160;14.768;2024-02-16T22:46:05;9.30;;;8.13;;
46875;SDS011;32866;50.160;14.768;2024-02-16T22:48:31;10.97;;;8.43;;
46875;SDS011;32866;50.160;14.768;2024-02-16T22:50:57;10.23;;;9.30;;
46875;SDS011;32866;50.160;14.768;2024-02-16T22:53:23;14.90;;;7.93;;
46875;SDS011;32866;50.160;14.768;2024-02-16T22:55:49;9.18;;;8.35;;
46875;SDS011;32866;50.160;14.768;2024-02-16T22:58:15;13.15;;;8.80;;
46875;SDS011;32866;50.160;14.768;2024-02-16T23:00:41;11.32;;;8.05;;
46875;SDS011;32866;50.160;14.768;2024-02-16T23:03:07;12.02;;;7.45;;
46875;SDS011;32866;50.160;14.768;2024-02-16T23:05:37;8.30;;;7.53;;
46875;SDS011;32866;50.160;14.768;2024-02-16T23:08:03;9.93;;;8.50;;
46875;SDS011;32866;50.160;14.768;2024-02-16T23:10:29;9.47;;;8.40;;
46875;SDS011;32866;50.160;14.768;2024-02-16T23:12:59;11.40;;;9.13;;
46875;SDS011;32866;50.160;14.768;2024-02-16T23:15:25;9.23;;;7.57;;
46875;SDS011;32866;50.160;14.768;2024-02-16T23:17:51;12.30;;;8.52;;
46875;SDS011;32866;50.160;14.768;2024-02-16T23:20:18;7.57;;;6.70;;
46875;SDS011;32866;50.160;14.768;2024-02-16T23:23:03;14.90;;;9.70;;
46875;SDS011;32866;50.160;14.768;2024-02-16T23:25:33;9.73;;;8.90;;
46875;SDS011;32866;50.160;14.768;2024-02-16T23:27:59;11.77;;;7.37;;
46875;SDS011;32866;50.160;14.768;2024-02-16T23:30:26;8.63;;;7.67;;
46875;SDS011;32866;50.160;14.768;2024-02-16T23:35:19;8.20;;;7.05;;
46875;SDS011;32866;50.160;14.768;2024-02-16T23:37:46;11.13;;;6.87;;
46875;SDS011;32866;50.160;14.768;2024-02-16T23:42:38;8.67;;;7.67;;
46875;SDS011;32866;50.160;14.768;2024-02-16T23:47:31;5.10;;;4.60;;
46875;SDS011;32866;50.160;14.768;2024-02-16T23:49:57;9.57;;;8.38;;
46875;SDS011;32866;50.160;14.768;2024-02-16T23:52:23;7.75;;;7.15;;
46875;SDS011;32866;50.160;14.768;2024-02-16T23:54:49;13.32;;;10.02;;
46875;SDS011;32866;50.160;14.768;2024-02-16T23:57:15;11.15;;;9.88;;
46875;SDS011;32866;50.160;14.768;2024-02-16T23:59:42;8.83;;;8.20;;
